sensor_id;sensor_type;location;lat;lon;timestamp;P1;durP1;ratioP1;P2;durP2;ratioP2
64986;SDS011;67903;52.108;9.358;2023-07-09T00:00:06;10.57;;;7.28;;
64986;SDS011;67903;52.108;9.358;2023-07-09T00:03:01;8.68;;;7.70;;
64986;SDS011;67903;52.108;9.358;2023-07-09T00:05:47;8.18;;;7.38;;
64986;SDS011;67903;52.108;9.358;2023-07-09T00:08:34;9.38;;;7.75;;
64986;SDS011;67903;52.108;9.358;2023-07-09T00:11:19;8.48;;;7.68;;
64986;SDS011;67903;52.108;9.358;2023-07-09T00:14:05;8.45;;;7.55;;
64986;SDS011;67903;52.108;9.358;2023-07-09T00:16:51;8.02;;;7.25;;
64986;SDS011;67903;52.108;9.358;2023-07-09T00:19:37;7.88;;;6.85;;
64986;SDS011;67903;52.108;9.358;2023-07-09T00:22:23;8.63;;;7.30;;
64986;SDS011;67903;52.108;9.358;2023-07-09T00:25:11;7.78;;;6.97;;
64986;SDS011;67903;52.108;9.358;2023-07-09T00:28:02;8.15;;;7.35;;
64986;SDS011;67903;52.108;9.358;2023-07-09T00:30:47;8.57;;;7.47;;
64986;SDS011;67903;52.108;9.358;2023-07-09T00:33:34;8.55;;;7.72;;
64986;SDS011;67903;52.108;9.358;2023-07-09T00:36:27;7.90;;;7.07;;
64986;SDS011;67903;52.108;9.358;2023-07-09T00:39:18;8.80;;;7.28;;
64986;SDS011;67903;52.108;9.358;2023-07-09T00:42:06;8.27;;;7.15;;
64986;SDS011;67903;52.108;9.358;2023-07-09T00:44:56;8.75;;;7.32;;
64986;SDS011;67903;52.108;9.358;2023-07-09T00:50:40;9.77;;;7.88;;
64986;SDS011;67903;52.108;9.358;2023-07-09T00:53:30;8.02;;;7.32;;
64986;SDS011;67903;52.108;9.358;2023-07-09T00:56:22;8.68;;;7.53;;
64986;SDS011;67903;52.108;9.358;2023-07-09T00:59:18;10.00;;;7.45;;
64986;SDS011;67903;52.108;9.358;2023-07-09T01:02:09;9.40;;;8.32;;
64986;SDS011;67903;52.108;9.358;2023-07-09T01:04:56;9.43;;;7.70;;
64986;SDS011;67903;52.108;9.358;2023-07-09T01:07:47;10.38;;;7.82;;
64986;SDS011;67903;52.108;9.358;2023-07-09T01:10:33;9.50;;;8.10;;
64986;SDS011;67903;52.108;9.358;2023-07-09T01:13:18;7.68;;;6.93;;
64986;SDS011;67903;52.108;9.358;2023-07-09T01:16:04;8.25;;;7.45;;
64986;SDS011;67903;52.108;9.358;2023-07-09T01:18:53;10.45;;;8.38;;
64986;SDS011;67903;52.108;9.358;2023-07-09T01:21:38;8.32;;;7.45;;
64986;SDS011;67903;52.108;9.358;2023-07-09T01:27:39;9.95;;;7.70;;
64986;SDS011;67903;52.108;9.358;2023-07-09T01:30:29;8.02;;;7.30;;
64986;SDS011;67903;52.108;9.358;2023-07-09T01:33:20;7.20;;;6.57;;
64986;SDS011;67903;52.108;9.358;2023-07-09T01:36:09;8.80;;;7.00;;
64986;SDS011;67903;52.108;9.358;2023-07-09T01:38:58;7.78;;;6.95;;
64986;SDS011;67903;52.108;9.358;2023-07-09T01:41:45;7.88;;;7.07;;
64986;SDS011;67903;52.108;9.358;2023-07-09T01:44:32;8.45;;;7.40;;
64986;SDS011;67903;52.108;9.358;2023-07-09T01:47:18;7.18;;;6.43;;
64986;SDS011;67903;52.108;9.358;2023-07-09T01:50:07;7.20;;;6.60;;
64986;SDS011;67903;52.108;9.358;2023-07-09T01:52:54;8.25;;;7.45;;
64986;SDS011;67903;52.108;9.358;2023-07-09T01:55:41;7.82;;;6.85;;
64986;SDS011;67903;52.108;9.358;2023-07-09T01:58:27;8.52;;;6.88;;
64986;SDS011;67903;52.108;9.358;2023-07-09T02:01:16;8.00;;;6.93;;
64986;SDS011;67903;52.108;9.358;2023-07-09T02:04:04;7.47;;;6.63;;
64986;SDS011;67903;52.108;9.358;2023-07-09T02:06:49;10.38;;;6.53;;
64986;SDS011;67903;52.108;9.358;2023-07-09T02:09:35;7.82;;;7.03;;
64986;SDS011;67903;52.108;9.358;2023-07-09T02:12:20;7.72;;;6.40;;
64986;SDS011;67903;52.108;9.358;2023-07-09T02:15:07;8.55;;;6.80;;
64986;SDS011;67903;52.108;9.358;2023-07-09T02:17:52;7.97;;;6.55;;
64986;SDS011;67903;52.108;9.358;2023-07-09T02:20:38;8.65;;;6.30;;
64986;SDS011;67903;52.108;9.358;2023-07-09T02:23:27;6.90;;;6.30;;
64986;SDS011;67903;52.108;9.358;2023-07-09T02:26:13;7.03;;;6.32;;
64986;SDS011;67903;52.108;9.358;2023-07-09T02:28:58;7.90;;;7.10;;
64986;SDS011;67903;52.108;9.358;2023-07-09T02:31:47;8.27;;;6.45;;
64986;SDS011;67903;52.108;9.358;2023-07-09T02:34:34;7.00;;;6.30;;
64986;SDS011;67903;52.108;9.358;2023-07-09T02:37:21;7.90;;;7.10;;
64986;SDS011;67903;52.108;9.358;2023-07-09T02:40:08;7.38;;;6.65;;
64986;SDS011;67903;52.108;9.358;2023-07-09T02:42:56;7.38;;;6.53;;
64986;SDS011;67903;52.108;9.358;2023-07-09T02:45:42;6.68;;;6.05;;
64986;SDS011;67903;52.108;9.358;2023-07-09T02:48:28;7.25;;;6.55;;
64986;SDS011;67903;52.108;9.358;2023-07-09T02:51:14;7.22;;;6.45;;
64986;SDS011;67903;52.108;9.358;2023-07-09T02:54:00;7.30;;;6.53;;
64986;SDS011;67903;52.108;9.358;2023-07-09T02:56:47;7.57;;;6.88;;
64986;SDS011;67903;52.108;9.358;2023-07-09T02:59:33;7.35;;;6.70;;
64986;SDS011;67903;52.108;9.358;2023-07-09T03:02:19;7.07;;;6.38;;
64986;SDS011;67903;52.108;9.358;2023-07-09T03:05:05;7.93;;;6.68;;
64986;SDS011;67903;52.108;9.358;2023-07-09T03:07:50;8.77;;;6.35;;
64986;SDS011;67903;52.108;9.358;2023-07-09T03:10:36;8.05;;;6.93;;
64986;SDS011;67903;52.108;9.358;2023-07-09T03:13:22;7.15;;;6.45;;
64986;SDS011;67903;52.108;9.358;2023-07-09T03:16:08;7.13;;;6.40;;
64986;SDS011;67903;52.108;9.358;2023-07-09T03:18:54;8.10;;;6.30;;
64986;SDS011;67903;52.108;9.358;2023-07-09T03:21:39;7.13;;;6.00;;
64986;SDS011;67903;52.108;9.358;2023-07-09T03:24:25;6.40;;;5.85;;
64986;SDS011;67903;52.108;9.358;2023-07-09T03:27:11;7.07;;;6.45;;
64986;SDS011;67903;52.108;9.358;2023-07-09T03:29:56;8.13;;;6.03;;
64986;SDS011;67903;52.108;9.358;2023-07-09T03:32:42;7.00;;;6.20;;
64986;SDS011;67903;52.108;9.358;2023-07-09T03:35:28;7.00;;;6.15;;
64986;SDS011;67903;52.108;9.358;2023-07-09T03:38:14;8.02;;;6.10;;
64986;SDS011;67903;52.108;9.358;2023-07-09T03:41:00;7.90;;;6.00;;
64986;SDS011;67903;52.108;9.358;2023-07-09T03:43:45;7.63;;;6.13;;
64986;SDS011;67903;52.108;9.358;2023-07-09T03:46:31;7.57;;;5.90;;
64986;SDS011;67903;52.108;9.358;2023-07-09T03:49:16;6.97;;;5.82;;
64986;SDS011;67903;52.108;9.358;2023-07-09T03:52:02;6.75;;;6.05;;
64986;SDS011;67903;52.108;9.358;2023-07-09T03:54:48;7.20;;;6.50;;
64986;SDS011;67903;52.108;9.358;2023-07-09T03:57:33;8.48;;;6.38;;
64986;SDS011;67903;52.108;9.358;2023-07-09T04:00:19;6.97;;;5.72;;
64986;SDS011;67903;52.108;9.358;2023-07-09T04:03:05;7.65;;;5.57;;
64986;SDS011;67903;52.108;9.358;2023-07-09T04:05:53;7.75;;;5.88;;
64986;SDS011;67903;52.108;9.358;2023-07-09T04:08:38;8.27;;;6.40;;
64986;SDS011;67903;52.108;9.358;2023-07-09T04:11:24;9.95;;;6.10;;
64986;SDS011;67903;52.108;9.358;2023-07-09T04:14:09;6.82;;;5.80;;
64986;SDS011;67903;52.108;9.358;2023-07-09T04:16:55;7.70;;;6.07;;
64986;SDS011;67903;52.108;9.358;2023-07-09T04:19:40;8.70;;;6.20;;
64986;SDS011;67903;52.108;9.358;2023-07-09T04:22:26;6.65;;;6.05;;
64986;SDS011;67903;52.108;9.358;2023-07-09T04:25:11;6.70;;;6.05;;
64986;SDS011;67903;52.108;9.358;2023-07-09T04:27:57;11.50;;;6.05;;
64986;SDS011;67903;52.108;9.358;2023-07-09T04:30:48;6.95;;;5.82;;
64986;SDS011;67903;52.108;9.358;2023-07-09T04:33:35;6.50;;;5.55;;
64986;SDS011;67903;52.108;9.358;2023-07-09T04:36:20;6.10;;;5.53;;
64986;SDS011;67903;52.108;9.358;2023-07-09T04:39:06;9.57;;;5.97;;
64986;SDS011;67903;52.108;9.358;2023-07-09T04:41:51;6.68;;;5.95;;
64986;SDS011;67903;52.108;9.358;2023-07-09T04:44:37;7.57;;;5.57;;
64986;SDS011;67903;52.108;9.358;2023-07-09T04:47:22;7.72;;;6.35;;
64986;SDS011;67903;52.108;9.358;2023-07-09T04:50:08;7.85;;;5.80;;
64986;SDS011;67903;52.108;9.358;2023-07-09T04:52:54;7.07;;;6.18;;
64986;SDS011;67903;52.108;9.358;2023-07-09T04:55:39;7.43;;;6.00;;
64986;SDS011;67903;52.108;9.358;2023-07-09T04:58:25;7.28;;;6.28;;
64986;SDS011;67903;52.108;9.358;2023-07-09T05:01:10;6.68;;;5.97;;
64986;SDS011;67903;52.108;9.358;2023-07-09T05:03:56;10.18;;;6.25;;
64986;SDS011;67903;52.108;9.358;2023-07-09T05:06:41;9.48;;;6.63;;
64986;SDS011;67903;52.108;9.358;2023-07-09T05:09:26;7.43;;;5.65;;
64986;SDS011;67903;52.108;9.358;2023-07-09T05:12:12;7.50;;;6.25;;
64986;SDS011;67903;52.108;9.358;2023-07-09T05:14:58;6.70;;;6.00;;
64986;SDS011;67903;52.108;9.358;2023-07-09T05:17:44;9.18;;;5.95;;
64986;SDS011;67903;52.108;9.358;2023-07-09T05:20:30;6.90;;;5.45;;
64986;SDS011;67903;52.108;9.358;2023-07-09T05:23:16;7.30;;;5.72;;
64986;SDS011;67903;52.108;9.358;2023-07-09T05:26:02;7.00;;;6.05;;
64986;SDS011;67903;52.108;9.358;2023-07-09T05:28:49;5.93;;;5.32;;
64986;SDS011;67903;52.108;9.358;2023-07-09T05:31:35;6.20;;;5.57;;
64986;SDS011;67903;52.108;9.358;2023-07-09T05:34:21;8.40;;;6.15;;
64986;SDS011;67903;52.108;9.358;2023-07-09T05:37:07;8.40;;;5.95;;
64986;SDS011;67903;52.108;9.358;2023-07-09T05:39:52;6.00;;;5.35;;
64986;SDS011;67903;52.108;9.358;2023-07-09T05:42:37;6.22;;;5.43;;
64986;SDS011;67903;52.108;9.358;2023-07-09T05:45:23;6.00;;;5.45;;
64986;SDS011;67903;52.108;9.358;2023-07-09T05:48:08;6.57;;;5.97;;
64986;SDS011;67903;52.108;9.358;2023-07-09T05:50:54;6.43;;;5.82;;
64986;SDS011;67903;52.108;9.358;2023-07-09T05:53:40;6.50;;;5.80;;
64986;SDS011;67903;52.108;9.358;2023-07-09T05:56:25;7.05;;;5.18;;
64986;SDS011;67903;52.108;9.358;2023-07-09T05:59:11;7.03;;;6.00;;
64986;SDS011;67903;52.108;9.358;2023-07-09T06:01:56;6.80;;;5.07;;
64986;SDS011;67903;52.108;9.358;2023-07-09T06:04:42;6.60;;;5.43;;
64986;SDS011;67903;52.108;9.358;2023-07-09T06:07:28;7.63;;;5.05;;
64986;SDS011;67903;52.108;9.358;2023-07-09T06:10:15;8.20;;;5.38;;
64986;SDS011;67903;52.108;9.358;2023-07-09T06:13:02;8.38;;;5.88;;
64986;SDS011;67903;52.108;9.358;2023-07-09T06:15:48;6.72;;;5.65;;
64986;SDS011;67903;52.108;9.358;2023-07-09T06:18:34;7.45;;;5.60;;
64986;SDS011;67903;52.108;9.358;2023-07-09T06:21:19;5.95;;;5.38;;
64986;SDS011;67903;52.108;9.358;2023-07-09T06:24:05;6.10;;;5.50;;
64986;SDS011;67903;52.108;9.358;2023-07-09T06:26:52;5.40;;;4.88;;
64986;SDS011;67903;52.108;9.358;2023-07-09T06:29:37;9.50;;;5.72;;
64986;SDS011;67903;52.108;9.358;2023-07-09T06:32:22;5.90;;;5.32;;
64986;SDS011;67903;52.108;9.358;2023-07-09T06:35:08;6.28;;;5.00;;
64986;SDS011;67903;52.108;9.358;2023-07-09T06:37:54;6.20;;;5.60;;
64986;SDS011;67903;52.108;9.358;2023-07-09T06:40:39;8.07;;;5.43;;
64986;SDS011;67903;52.108;9.358;2023-07-09T06:43:25;5.55;;;5.05;;
64986;SDS011;67903;52.108;9.358;2023-07-09T06:46:11;7.50;;;5.70;;
64986;SDS011;67903;52.108;9.358;2023-07-09T06:48:58;6.45;;;5.70;;
64986;SDS011;67903;52.108;9.358;2023-07-09T06:51:43;7.85;;;5.28;;
64986;SDS011;67903;52.108;9.358;2023-07-09T06:54:30;6.38;;;5.78;;
64986;SDS011;67903;52.108;9.358;2023-07-09T06:57:15;8.57;;;5.50;;
64986;SDS011;67903;52.108;9.358;2023-07-09T07:00:01;6.15;;;5.50;;
64986;SDS011;67903;52.108;9.358;2023-07-09T07:02:47;5.75;;;5.25;;
64986;SDS011;67903;52.108;9.358;2023-07-09T07:05:33;7.22;;;5.68;;
64986;SDS011;67903;52.108;9.358;2023-07-09T07:08:19;6.68;;;5.68;;
64986;SDS011;67903;52.108;9.358;2023-07-09T07:11:07;6.40;;;5.70;;
64986;SDS011;67903;52.108;9.358;2023-07-09T07:13:53;8.10;;;5.80;;
64986;SDS011;67903;52.108;9.358;2023-07-09T07:16:39;5.97;;;5.22;;
64986;SDS011;67903;52.108;9.358;2023-07-09T07:19:26;6.25;;;5.65;;
64986;SDS011;67903;52.108;9.358;2023-07-09T07:22:12;6.03;;;5.35;;
64986;SDS011;67903;52.108;9.358;2023-07-09T07:24:57;5.63;;;5.13;;
64986;SDS011;67903;52.108;9.358;2023-07-09T07:27:43;6.30;;;5.70;;
64986;SDS011;67903;52.108;9.358;2023-07-09T07:30:28;7.10;;;6.28;;
64986;SDS011;67903;52.108;9.358;2023-07-09T07:33:14;7.40;;;5.68;;
64986;SDS011;67903;52.108;9.358;2023-07-09T07:36:03;6.65;;;5.65;;
64986;SDS011;67903;52.108;9.358;2023-07-09T07:38:52;6.80;;;5.45;;
64986;SDS011;67903;52.108;9.358;2023-07-09T07:41:37;5.63;;;5.13;;
64986;SDS011;67903;52.108;9.358;2023-07-09T07:44:23;5.45;;;4.95;;
64986;SDS011;67903;52.108;9.358;2023-07-09T07:47:09;5.65;;;5.05;;
64986;SDS011;67903;52.108;9.358;2023-07-09T07:49:57;6.20;;;5.57;;
64986;SDS011;67903;52.108;9.358;2023-07-09T07:52:42;5.95;;;5.32;;
64986;SDS011;67903;52.108;9.358;2023-07-09T07:55:28;6.68;;;5.15;;
64986;SDS011;67903;52.108;9.358;2023-07-09T07:58:13;6.45;;;5.38;;
64986;SDS011;67903;52.108;9.358;2023-07-09T08:00:58;5.78;;;5.20;;
64986;SDS011;67903;52.108;9.358;2023-07-09T08:03:44;5.82;;;5.30;;
64986;SDS011;67903;52.108;9.358;2023-07-09T08:06:29;5.93;;;5.43;;
64986;SDS011;67903;52.108;9.358;2023-07-09T08:09:16;5.97;;;5.38;;
64986;SDS011;67903;52.108;9.358;2023-07-09T08:12:02;8.07;;;5.57;;
64986;SDS011;67903;52.108;9.358;2023-07-09T08:14:53;6.60;;;5.40;;
64986;SDS011;67903;52.108;9.358;2023-07-09T08:17:39;6.07;;;5.47;;
64986;SDS011;67903;52.108;9.358;2023-07-09T08:20:24;5.75;;;5.25;;
64986;SDS011;67903;52.108;9.358;2023-07-09T08:23:10;6.13;;;4.82;;
64986;SDS011;67903;52.108;9.358;2023-07-09T08:25:56;5.78;;;5.13;;
64986;SDS011;67903;52.108;9.358;2023-07-09T08:28:43;6.68;;;5.25;;
64986;SDS011;67903;52.108;9.358;2023-07-09T08:31:28;6.63;;;5.70;;
64986;SDS011;67903;52.108;9.358;2023-07-09T08:34:14;6.03;;;5.45;;
64986;SDS011;67903;52.108;9.358;2023-07-09T08:36:59;7.55;;;5.88;;
64986;SDS011;67903;52.108;9.358;2023-07-09T08:39:46;6.65;;;6.05;;
64986;SDS011;67903;52.108;9.358;2023-07-09T08:42:33;6.43;;;5.68;;
64986;SDS011;67903;52.108;9.358;2023-07-09T08:45:56;5.68;;;5.13;;
64986;SDS011;67903;52.108;9.358;2023-07-09T08:48:48;9.20;;;6.32;;
64986;SDS011;67903;52.108;9.358;2023-07-09T08:51:37;6.28;;;5.68;;
64986;SDS011;67903;52.108;9.358;2023-07-09T08:54:26;6.18;;;5.60;;
64986;SDS011;67903;52.108;9.358;2023-07-09T08:57:17;6.72;;;6.05;;
64986;SDS011;67903;52.108;9.358;2023-07-09T09:00:16;6.18;;;5.63;;
64986;SDS011;67903;52.108;9.358;2023-07-09T09:06:30;6.20;;;5.60;;
64986;SDS011;67903;52.108;9.358;2023-07-09T09:12:35;5.90;;;5.40;;
64986;SDS011;67903;52.108;9.358;2023-07-09T09:15:24;7.05;;;6.35;;
64986;SDS011;67903;52.108;9.358;2023-07-09T09:18:14;6.60;;;5.68;;
64986;SDS011;67903;52.108;9.358;2023-07-09T09:21:14;6.72;;;5.57;;
64986;SDS011;67903;52.108;9.358;2023-07-09T09:24:15;6.00;;;5.40;;
64986;SDS011;67903;52.108;9.358;2023-07-09T09:27:07;6.43;;;5.82;;
64986;SDS011;67903;52.108;9.358;2023-07-09T09:29:53;6.60;;;5.93;;
64986;SDS011;67903;52.108;9.358;2023-07-09T09:32:41;7.13;;;6.00;;
64986;SDS011;67903;52.108;9.358;2023-07-09T09:35:30;6.55;;;5.78;;
64986;SDS011;67903;52.108;9.358;2023-07-09T09:38:21;7.15;;;6.18;;
64986;SDS011;67903;52.108;9.358;2023-07-09T09:41:14;7.82;;;5.47;;
64986;SDS011;67903;52.108;9.358;2023-07-09T09:44:01;6.88;;;6.15;;
64986;SDS011;67903;52.108;9.358;2023-07-09T09:46:48;7.47;;;5.50;;
64986;SDS011;67903;52.108;9.358;2023-07-09T09:49:39;6.68;;;6.03;;
64986;SDS011;67903;52.108;9.358;2023-07-09T09:52:26;7.70;;;5.80;;
64986;SDS011;67903;52.108;9.358;2023-07-09T09:55:22;5.78;;;5.28;;
64986;SDS011;67903;52.108;9.358;2023-07-09T09:58:16;6.25;;;5.65;;
64986;SDS011;67903;52.108;9.358;2023-07-09T10:01:02;6.30;;;5.70;;
64986;SDS011;67903;52.108;9.358;2023-07-09T10:03:50;7.15;;;6.10;;
64986;SDS011;67903;52.108;9.358;2023-07-09T10:06:42;6.00;;;5.35;;
64986;SDS011;67903;52.108;9.358;2023-07-09T10:09:53;9.27;;;5.78;;
64986;SDS011;67903;52.108;9.358;2023-07-09T10:12:44;9.15;;;5.55;;
64986;SDS011;67903;52.108;9.358;2023-07-09T10:15:48;7.50;;;5.90;;
64986;SDS011;67903;52.108;9.358;2023-07-09T10:19:04;6.20;;;5.13;;
64986;SDS011;67903;52.108;9.358;2023-07-09T10:22:06;7.60;;;5.93;;
64986;SDS011;67903;52.108;9.358;2023-07-09T10:28:04;6.75;;;5.78;;
64986;SDS011;67903;52.108;9.358;2023-07-09T10:31:03;6.13;;;5.35;;
64986;SDS011;67903;52.108;9.358;2023-07-09T10:34:05;5.80;;;5.30;;
64986;SDS011;67903;52.108;9.358;2023-07-09T10:39:53;5.93;;;5.22;;
64986;SDS011;67903;52.108;9.358;2023-07-09T10:42:47;5.90;;;5.30;;
64986;SDS011;67903;52.108;9.358;2023-07-09T10:45:39;8.05;;;5.50;;
64986;SDS011;67903;52.108;9.358;2023-07-09T10:48:31;5.97;;;5.40;;
64986;SDS011;67903;52.108;9.358;2023-07-09T10:51:23;6.30;;;5.60;;
64986;SDS011;67903;52.108;9.358;2023-07-09T10:54:54;7.03;;;4.95;;
64986;SDS011;67903;52.108;9.358;2023-07-09T11:00:44;5.75;;;5.20;;
64986;SDS011;67903;52.108;9.358;2023-07-09T11:03:43;6.32;;;5.10;;
64986;SDS011;67903;52.108;9.358;2023-07-09T11:06:39;5.85;;;4.85;;
64986;SDS011;67903;52.108;9.358;2023-07-09T11:09:30;5.78;;;4.97;;
64986;SDS011;67903;52.108;9.358;2023-07-09T11:12:19;6.95;;;5.13;;
64986;SDS011;67903;52.108;9.358;2023-07-09T11:15:15;5.25;;;4.75;;
64986;SDS011;67903;52.108;9.358;2023-07-09T11:18:04;6.22;;;4.90;;
64986;SDS011;67903;52.108;9.358;2023-07-09T11:21:04;5.22;;;4.72;;
64986;SDS011;67903;52.108;9.358;2023-07-09T11:24:00;5.57;;;5.03;;
64986;SDS011;67903;52.108;9.358;2023-07-09T11:26:46;5.65;;;4.88;;
64986;SDS011;67903;52.108;9.358;2023-07-09T11:29:33;5.90;;;5.30;;
64986;SDS011;67903;52.108;9.358;2023-07-09T11:32:31;6.38;;;4.35;;
64986;SDS011;67903;52.108;9.358;2023-07-09T11:35:19;5.10;;;4.60;;
64986;SDS011;67903;52.108;9.358;2023-07-09T11:38:15;5.65;;;5.10;;
64986;SDS011;67903;52.108;9.358;2023-07-09T11:44:21;5.10;;;4.60;;
64986;SDS011;67903;52.108;9.358;2023-07-09T11:50:03;5.18;;;4.68;;
64986;SDS011;67903;52.108;9.358;2023-07-09T11:56:23;6.22;;;4.80;;
64986;SDS011;67903;52.108;9.358;2023-07-09T11:59:10;5.95;;;4.97;;
64986;SDS011;67903;52.108;9.358;2023-07-09T12:01:56;7.10;;;4.88;;
64986;SDS011;67903;52.108;9.358;2023-07-09T12:04:50;6.53;;;4.78;;
64986;SDS011;67903;52.108;9.358;2023-07-09T12:07:37;5.80;;;5.00;;
64986;SDS011;67903;52.108;9.358;2023-07-09T12:10:23;6.25;;;4.88;;
64986;SDS011;67903;52.108;9.358;2023-07-09T12:13:11;5.93;;;4.50;;
64986;SDS011;67903;52.108;9.358;2023-07-09T12:15:57;5.95;;;4.78;;
64986;SDS011;67903;52.108;9.358;2023-07-09T12:18:42;6.18;;;5.20;;
64986;SDS011;67903;52.108;9.358;2023-07-09T12:21:29;6.00;;;5.00;;
64986;SDS011;67903;52.108;9.358;2023-07-09T12:24:28;8.07;;;5.13;;
64986;SDS011;67903;52.108;9.358;2023-07-09T12:27:17;5.43;;;4.93;;
64986;SDS011;67903;52.108;9.358;2023-07-09T12:30:09;5.47;;;4.97;;
64986;SDS011;67903;52.108;9.358;2023-07-09T12:32:56;7.43;;;5.53;;
64986;SDS011;67903;52.108;9.358;2023-07-09T12:35:42;8.10;;;5.40;;
64986;SDS011;67903;52.108;9.358;2023-07-09T12:38:29;5.82;;;5.30;;
64986;SDS011;67903;52.108;9.358;2023-07-09T12:41:29;5.93;;;5.18;;
64986;SDS011;67903;52.108;9.358;2023-07-09T12:44:23;10.25;;;6.07;;
64986;SDS011;67903;52.108;9.358;2023-07-09T12:47:12;6.13;;;5.40;;
64986;SDS011;67903;52.108;9.358;2023-07-09T12:50:00;7.68;;;5.45;;
64986;SDS011;67903;52.108;9.358;2023-07-09T12:53:14;5.78;;;5.20;;
64986;SDS011;67903;52.108;9.358;2023-07-09T12:56:01;7.75;;;5.80;;
64986;SDS011;67903;52.108;9.358;2023-07-09T12:58:47;7.40;;;6.07;;
64986;SDS011;67903;52.108;9.358;2023-07-09T13:01:33;6.78;;;6.07;;
64986;SDS011;67903;52.108;9.358;2023-07-09T13:04:20;6.47;;;5.53;;
64986;SDS011;67903;52.108;9.358;2023-07-09T13:13:03;6.68;;;5.90;;
64986;SDS011;67903;52.108;9.358;2023-07-09T13:18:46;6.50;;;5.88;;
64986;SDS011;67903;52.108;9.358;2023-07-09T13:21:31;6.68;;;6.07;;
64986;SDS011;67903;52.108;9.358;2023-07-09T13:24:22;6.05;;;5.45;;
64986;SDS011;67903;52.108;9.358;2023-07-09T13:27:13;6.95;;;6.25;;
64986;SDS011;67903;52.108;9.358;2023-07-09T13:30:00;7.95;;;5.65;;
64986;SDS011;67903;52.108;9.358;2023-07-09T13:32:46;6.35;;;5.68;;
64986;SDS011;67903;52.108;9.358;2023-07-09T13:35:34;7.80;;;5.65;;
64986;SDS011;67903;52.108;9.358;2023-07-09T13:38:20;6.68;;;6.05;;
64986;SDS011;67903;52.108;9.358;2023-07-09T13:41:11;8.50;;;5.80;;
64986;SDS011;67903;52.108;9.358;2023-07-09T13:44:04;7.22;;;6.10;;
64986;SDS011;67903;52.108;9.358;2023-07-09T13:46:57;6.35;;;5.65;;
64986;SDS011;67903;52.108;9.358;2023-07-09T13:49:43;6.63;;;5.80;;
64986;SDS011;67903;52.108;9.358;2023-07-09T13:52:30;9.00;;;7.10;;
64986;SDS011;67903;52.108;9.358;2023-07-09T13:55:17;8.52;;;6.60;;
64986;SDS011;67903;52.108;9.358;2023-07-09T13:58:04;7.20;;;5.78;;
64986;SDS011;67903;52.108;9.358;2023-07-09T14:00:50;6.65;;;5.80;;
64986;SDS011;67903;52.108;9.358;2023-07-09T14:03:51;6.32;;;5.68;;
64986;SDS011;67903;52.108;9.358;2023-07-09T14:06:43;8.95;;;6.82;;
64986;SDS011;67903;52.108;9.358;2023-07-09T14:09:31;7.18;;;6.00;;
64986;SDS011;67903;52.108;9.358;2023-07-09T14:12:16;6.57;;;5.93;;
64986;SDS011;67903;52.108;9.358;2023-07-09T14:15:05;8.30;;;6.28;;
64986;SDS011;67903;52.108;9.358;2023-07-09T14:18:05;6.50;;;5.72;;
64986;SDS011;67903;52.108;9.358;2023-07-09T14:21:08;7.43;;;5.43;;
64986;SDS011;67903;52.108;9.358;2023-07-09T14:24:00;6.15;;;5.53;;
64986;SDS011;67903;52.108;9.358;2023-07-09T14:26:46;8.20;;;5.93;;
64986;SDS011;67903;52.108;9.358;2023-07-09T14:29:32;6.22;;;5.57;;
64986;SDS011;67903;52.108;9.358;2023-07-09T14:35:23;6.00;;;5.25;;
64986;SDS011;67903;52.108;9.358;2023-07-09T14:38:18;8.60;;;5.90;;
64986;SDS011;67903;52.108;9.358;2023-07-09T14:41:17;7.10;;;6.40;;
64986;SDS011;67903;52.108;9.358;2023-07-09T14:44:40;7.20;;;6.43;;
64986;SDS011;67903;52.108;9.358;2023-07-09T14:47:19;5.72;;;5.22;;
64986;SDS011;67903;52.108;9.358;2023-07-09T14:50:05;6.35;;;5.57;;
64986;SDS011;67903;52.108;9.358;2023-07-09T14:52:52;6.63;;;5.72;;
64986;SDS011;67903;52.108;9.358;2023-07-09T14:55:37;5.78;;;5.20;;
64986;SDS011;67903;52.108;9.358;2023-07-09T14:58:23;6.68;;;5.57;;
64986;SDS011;67903;52.108;9.358;2023-07-09T15:01:10;5.82;;;5.22;;
64986;SDS011;67903;52.108;9.358;2023-07-09T15:03:57;5.75;;;5.18;;
64986;SDS011;67903;52.108;9.358;2023-07-09T15:06:43;5.63;;;4.97;;
64986;SDS011;67903;52.108;9.358;2023-07-09T15:09:28;5.63;;;5.10;;
64986;SDS011;67903;52.108;9.358;2023-07-09T15:12:19;6.72;;;6.13;;
64986;SDS011;67903;52.108;9.358;2023-07-09T15:15:14;6.28;;;5.40;;
64986;SDS011;67903;52.108;9.358;2023-07-09T15:18:13;6.50;;;5.63;;
64986;SDS011;67903;52.108;9.358;2023-07-09T15:21:00;6.85;;;5.75;;
64986;SDS011;67903;52.108;9.358;2023-07-09T15:23:48;9.32;;;5.90;;
64986;SDS011;67903;52.108;9.358;2023-07-09T15:26:33;7.38;;;5.53;;
64986;SDS011;67903;52.108;9.358;2023-07-09T15:29:19;5.60;;;5.10;;
64986;SDS011;67903;52.108;9.358;2023-07-09T15:32:06;7.88;;;5.85;;
64986;SDS011;67903;52.108;9.358;2023-07-09T15:34:52;5.88;;;5.20;;
64986;SDS011;67903;52.108;9.358;2023-07-09T15:37:37;6.60;;;5.35;;
64986;SDS011;67903;52.108;9.358;2023-07-09T15:40:24;7.03;;;5.80;;
64986;SDS011;67903;52.108;9.358;2023-07-09T15:43:14;6.80;;;5.65;;
64986;SDS011;67903;52.108;9.358;2023-07-09T15:46:00;9.18;;;5.80;;
64986;SDS011;67903;52.108;9.358;2023-07-09T15:48:46;6.07;;;5.40;;
64986;SDS011;67903;52.108;9.358;2023-07-09T15:51:34;6.60;;;5.72;;
64986;SDS011;67903;52.108;9.358;2023-07-09T15:54:20;7.50;;;5.90;;
64986;SDS011;67903;52.108;9.358;2023-07-09T15:57:07;7.03;;;6.10;;
64986;SDS011;67903;52.108;9.358;2023-07-09T15:59:57;5.90;;;5.40;;
64986;SDS011;67903;52.108;9.358;2023-07-09T16:02:42;7.78;;;6.10;;
64986;SDS011;67903;52.108;9.358;2023-07-09T16:05:29;7.78;;;6.97;;
64986;SDS011;67903;52.108;9.358;2023-07-09T16:08:15;10.52;;;7.38;;
64986;SDS011;67903;52.108;9.358;2023-07-09T16:11:01;8.57;;;7.70;;
64986;SDS011;67903;52.108;9.358;2023-07-09T16:13:50;8.00;;;6.13;;
64986;SDS011;67903;52.108;9.358;2023-07-09T16:16:37;9.23;;;7.43;;
64986;SDS011;67903;52.108;9.358;2023-07-09T16:19:24;8.43;;;6.57;;
64986;SDS011;67903;52.108;9.358;2023-07-09T16:22:11;7.47;;;6.70;;
64986;SDS011;67903;52.108;9.358;2023-07-09T16:25:00;7.22;;;6.47;;
64986;SDS011;67903;52.108;9.358;2023-07-09T16:27:45;7.68;;;6.80;;
64986;SDS011;67903;52.108;9.358;2023-07-09T16:30:30;7.93;;;7.15;;
64986;SDS011;67903;52.108;9.358;2023-07-09T16:33:16;9.20;;;7.05;;
64986;SDS011;67903;52.108;9.358;2023-07-09T16:36:03;7.15;;;6.22;;
64986;SDS011;67903;52.108;9.358;2023-07-09T16:38:49;10.15;;;8.40;;
64986;SDS011;67903;52.108;9.358;2023-07-09T16:41:35;7.78;;;6.97;;
64986;SDS011;67903;52.108;9.358;2023-07-09T16:44:21;8.88;;;6.90;;
64986;SDS011;67903;52.108;9.358;2023-07-09T16:47:17;7.15;;;6.50;;
64986;SDS011;67903;52.108;9.358;2023-07-09T16:50:04;7.72;;;6.53;;
64986;SDS011;67903;52.108;9.358;2023-07-09T16:52:51;8.10;;;7.20;;
64986;SDS011;67903;52.108;9.358;2023-07-09T16:55:38;11.32;;;7.00;;
64986;SDS011;67903;52.108;9.358;2023-07-09T16:58:26;10.07;;;6.82;;
64986;SDS011;67903;52.108;9.358;2023-07-09T17:01:16;9.88;;;6.90;;
64986;SDS011;67903;52.108;9.358;2023-07-09T17:04:22;7.22;;;6.53;;
64986;SDS011;67903;52.108;9.358;2023-07-09T17:07:08;8.52;;;7.38;;
64986;SDS011;67903;52.108;9.358;2023-07-09T17:09:54;9.77;;;8.88;;
64986;SDS011;67903;52.108;9.358;2023-07-09T17:12:40;9.75;;;8.48;;
64986;SDS011;67903;52.108;9.358;2023-07-09T17:15:31;9.93;;;8.20;;
64986;SDS011;67903;52.108;9.358;2023-07-09T17:18:31;8.50;;;7.55;;
64986;SDS011;67903;52.108;9.358;2023-07-09T17:21:17;9.18;;;7.25;;
64986;SDS011;67903;52.108;9.358;2023-07-09T17:24:03;11.55;;;7.10;;
64986;SDS011;67903;52.108;9.358;2023-07-09T17:27:10;9.90;;;7.57;;
64986;SDS011;67903;52.108;9.358;2023-07-09T17:29:56;11.70;;;8.70;;
64986;SDS011;67903;52.108;9.358;2023-07-09T17:32:41;7.60;;;6.80;;
64986;SDS011;67903;52.108;9.358;2023-07-09T17:35:26;8.13;;;7.25;;
64986;SDS011;67903;52.108;9.358;2023-07-09T17:38:17;12.68;;;7.93;;